Mesquite's Hourly Summary for Wednesday, March 15, 2017
Hour Temp
(f)
RH
(%)
Solar Rad.
(MJ/m2)
Rainfall
(in)
Wind
(mph)
3/15/2017 12:00 AM 52 52 0 0 3.31
3/15/2017 1:00 AM 52 53 0 0 4.42
3/15/2017 2:00 AM 49 55 0 0 7.04
3/15/2017 3:00 AM 47 60 0 0 7.06
3/15/2017 4:00 AM 47 60 0 0 5.99
3/15/2017 5:00 AM 46 63 0 0 6.25
3/15/2017 6:00 AM 46 65 0 0 7.24
3/15/2017 7:00 AM 46 71 0 0 7.84
3/15/2017 8:00 AM 46 69 0.02 0 7.9
3/15/2017 9:00 AM 46 68 0.22 0 7.61
3/15/2017 10:00 AM 46 66 0.72 0 8.19
3/15/2017 11:00 AM 48 62 1.62 0 8.58
3/15/2017 12:00 PM 51 58 2.27 0 7.93
3/15/2017 1:00 PM 53 55 2.02 0 6.67
3/15/2017 2:00 PM 55 51 3 0 7.2
3/15/2017 3:00 PM 58 48 2.87 0 6.91
3/15/2017 4:00 PM 60 46 2.55 0 5.84
3/15/2017 5:00 PM 62 46 2.06 0 5.83
3/15/2017 6:00 PM 62 47 1.34 0 5.72
3/15/2017 7:00 PM 62 47 0.56 0 5.56
3/15/2017 8:00 PM 60 49 0.05 0 4.95
3/15/2017 9:00 PM 58 53 0 0 2.94
3/15/2017 10:00 PM 57 57 0 0 4.17
3/15/2017 11:00 PM 55 58 0 0 4.31
Data Summary 52 56 19.30 0.00 6.23